createdAt,value
2022-12-31T00:03:01.014Z,7.32
2022-12-31T00:06:29.569Z,7.80
2022-12-31T00:09:37.000Z,8.07
2022-12-31T00:12:40.649Z,8.48
2022-12-31T00:15:56.624Z,9.13
2022-12-31T00:19:00.976Z,8.50
2022-12-31T00:22:06.767Z,7.53
2022-12-31T00:25:11.672Z,6.75
2022-12-31T00:28:15.294Z,7.72
2022-12-31T00:31:25.683Z,7.87
2022-12-31T00:34:31.451Z,7.90
2022-12-31T00:37:39.212Z,7.75
2022-12-31T00:40:52.890Z,8.40
2022-12-31T00:43:58.765Z,9.13
2022-12-31T00:47:02.550Z,7.72
2022-12-31T00:50:09.153Z,7.95
2022-12-31T00:53:12.305Z,8.30
2022-12-31T00:56:21.558Z,8.27
2022-12-31T00:59:25.652Z,7.43
2022-12-31T01:02:29.839Z,9.68
2022-12-31T01:05:35.094Z,7.95
2022-12-31T01:08:41.667Z,7.45
2022-12-31T01:11:45.808Z,8.32
2022-12-31T01:14:50.543Z,6.60
2022-12-31T01:17:54.387Z,7.50
2022-12-31T01:21:04.769Z,8.48
2022-12-31T01:24:10.988Z,7.72
2022-12-31T01:27:16.562Z,7.57
2022-12-31T01:30:23.280Z,7.15
2022-12-31T01:33:28.499Z,8.00
2022-12-31T01:36:34.853Z,6.72
2022-12-31T01:39:38.785Z,6.75
2022-12-31T01:42:43.998Z,9.02
2022-12-31T01:45:54.754Z,7.90
2022-12-31T01:49:27.204Z,6.68
2022-12-31T01:52:47.766Z,6.65
2022-12-31T01:56:03.204Z,8.77
2022-12-31T01:59:34.898Z,7.45
2022-12-31T02:02:40.039Z,7.85
2022-12-31T02:05:56.909Z,5.97
2022-12-31T02:09:29.780Z,8.52
2022-12-31T02:15:57.164Z,5.97
2022-12-31T02:19:59.561Z,7.62
2022-12-31T02:23:32.923Z,8.85
2022-12-31T02:27:45.643Z,6.28
2022-12-31T02:30:55.552Z,5.32
2022-12-31T02:34:08.666Z,6.72
2022-12-31T02:37:34.054Z,8.38
2022-12-31T02:40:38.914Z,7.82
2022-12-31T02:44:02.516Z,8.02
2022-12-31T02:47:32.935Z,7.22
2022-12-31T02:50:58.218Z,8.00
2022-12-31T02:55:18.458Z,8.50
2022-12-31T02:59:00.775Z,6.47
2022-12-31T03:02:21.773Z,6.57
2022-12-31T03:05:51.468Z,6.45
2022-12-31T03:09:44.598Z,6.53
2022-12-31T03:13:29.899Z,6.53
2022-12-31T03:16:35.754Z,8.45
2022-12-31T03:20:00.754Z,8.48
2022-12-31T03:23:06.987Z,7.00
2022-12-31T03:26:13.607Z,8.40
2022-12-31T03:29:16.951Z,9.20
2022-12-31T03:32:44.604Z,7.15
2022-12-31T03:35:49.076Z,6.43
2022-12-31T03:38:56.035Z,8.30
2022-12-31T03:42:08.591Z,8.07
2022-12-31T03:46:01.748Z,7.28
2022-12-31T03:49:09.835Z,7.82
2022-12-31T03:52:17.513Z,7.10
2022-12-31T03:55:32.655Z,7.28
2022-12-31T03:58:47.602Z,7.50
2022-12-31T04:01:59.006Z,8.85
2022-12-31T04:05:25.627Z,8.27
2022-12-31T04:08:33.561Z,7.95
2022-12-31T04:11:41.929Z,8.55
2022-12-31T04:14:47.370Z,6.45
2022-12-31T04:17:51.706Z,7.87
2022-12-31T04:20:55.509Z,7.03
2022-12-31T04:24:01.903Z,8.27
2022-12-31T04:27:08.019Z,7.62
2022-12-31T04:30:16.947Z,7.50
2022-12-31T04:33:20.844Z,7.97
2022-12-31T04:36:44.730Z,7.37
2022-12-31T04:39:47.965Z,8.13
2022-12-31T04:42:51.573Z,7.87
2022-12-31T04:45:54.835Z,8.80
2022-12-31T04:48:59.498Z,7.25
2022-12-31T04:52:02.727Z,7.05
2022-12-31T04:55:06.943Z,8.48
2022-12-31T04:58:14.237Z,7.97
2022-12-31T05:01:20.228Z,6.72
2022-12-31T05:04:34.328Z,8.40
2022-12-31T05:07:58.847Z,5.78
2022-12-31T05:11:04.556Z,8.40
2022-12-31T05:14:28.690Z,6.75
2022-12-31T05:17:44.888Z,7.65
2022-12-31T05:21:22.156Z,6.47
2022-12-31T05:24:51.943Z,6.18
2022-12-31T05:27:58.964Z,7.72
2022-12-31T05:31:14.922Z,7.90
2022-12-31T05:34:45.624Z,8.23
2022-12-31T05:38:31.581Z,8.57
2022-12-31T05:41:36.276Z,7.90
2022-12-31T05:45:08.210Z,6.28
2022-12-31T05:48:30.065Z,6.20
2022-12-31T05:51:56.138Z,8.02
2022-12-31T05:55:00.180Z,8.13
2022-12-31T06:01:35.987Z,8.02
2022-12-31T06:04:42.764Z,7.07
2022-12-31T06:07:50.209Z,6.22
2022-12-31T06:11:14.361Z,7.95
2022-12-31T06:14:21.181Z,6.37
2022-12-31T06:17:27.873Z,7.32
2022-12-31T06:20:38.497Z,6.97
2022-12-31T06:24:22.120Z,7.22
2022-12-31T06:27:25.428Z,6.90
2022-12-31T06:30:28.613Z,7.22
2022-12-31T06:33:31.929Z,7.35
2022-12-31T06:36:35.626Z,7.50
2022-12-31T06:39:42.531Z,8.40
2022-12-31T06:42:46.475Z,7.22
2022-12-31T06:45:49.869Z,8.48
2022-12-31T06:48:55.631Z,9.13
2022-12-31T06:52:04.405Z,9.55
2022-12-31T06:58:30.590Z,7.90
2022-12-31T07:01:46.080Z,8.77
2022-12-31T07:05:30.716Z,8.68
2022-12-31T07:08:54.521Z,9.27
2022-12-31T07:12:44.914Z,8.93
2022-12-31T07:16:02.669Z,8.48
2022-12-31T07:19:32.214Z,8.70
2022-12-31T07:23:30.451Z,8.75
2022-12-31T07:27:54.624Z,7.55
2022-12-31T07:31:49.437Z,8.65
2022-12-31T07:35:00.366Z,8.70
2022-12-31T07:38:25.245Z,7.80
2022-12-31T07:42:01.309Z,8.90
2022-12-31T07:45:21.314Z,8.35
2022-12-31T07:48:30.410Z,8.68
2022-12-31T07:51:38.146Z,9.35
2022-12-31T07:54:53.856Z,9.20
2022-12-31T07:58:47.345Z,7.37
2022-12-31T08:02:03.689Z,9.80
2022-12-31T08:05:27.671Z,9.88
2022-12-31T08:09:11.827Z,10.18
2022-12-31T08:13:43.022Z,9.73
2022-12-31T08:39:02.592Z,11.10
2022-12-31T08:48:30.034Z,10.25
2022-12-31T08:52:09.205Z,9.30
2022-12-31T08:57:27.926Z,11.15
2022-12-31T09:36:38.002Z,11.40
2022-12-31T09:40:59.618Z,10.63
2022-12-31T09:50:11.605Z,10.93
2022-12-31T09:54:15.356Z,10.70
2022-12-31T09:58:46.944Z,12.33
2022-12-31T10:02:25.682Z,12.35
2022-12-31T10:06:03.729Z,12.65
2022-12-31T10:19:27.917Z,10.80
2022-12-31T10:22:51.554Z,11.93
2022-12-31T10:26:42.274Z,9.98
2022-12-31T10:29:59.737Z,9.15
2022-12-31T10:37:26.284Z,9.30
2022-12-31T10:41:05.888Z,9.82
2022-12-31T10:45:05.249Z,9.05
2022-12-31T10:49:39.846Z,11.15
2022-12-31T10:54:13.591Z,11.40
2022-12-31T10:58:50.646Z,10.07
2022-12-31T11:02:34.514Z,9.45
2022-12-31T11:06:13.701Z,11.15
2022-12-31T11:10:14.415Z,11.52
2022-12-31T11:14:11.355Z,11.95
2022-12-31T11:17:38.027Z,11.20
2022-12-31T11:21:51.890Z,9.93
2022-12-31T11:25:08.642Z,10.68
2022-12-31T11:28:34.409Z,11.10
2022-12-31T11:32:16.141Z,11.80
2022-12-31T11:35:45.650Z,11.50
2022-12-31T11:39:32.189Z,10.30
2022-12-31T11:43:15.171Z,10.35
2022-12-31T11:47:04.568Z,11.23
2022-12-31T11:50:13.476Z,12.50
2022-12-31T11:53:16.900Z,10.82
2022-12-31T11:56:34.201Z,11.20
2022-12-31T12:00:01.689Z,10.57
2022-12-31T12:03:18.935Z,9.68
2022-12-31T12:06:46.405Z,10.93
2022-12-31T12:09:51.754Z,10.45
2022-12-31T12:13:03.707Z,10.73
2022-12-31T12:16:09.422Z,12.07
2022-12-31T12:19:19.365Z,11.93
2022-12-31T12:22:36.827Z,10.02
2022-12-31T12:26:52.319Z,10.00
2022-12-31T12:30:24.556Z,10.98
2022-12-31T12:34:00.475Z,11.77
2022-12-31T12:37:34.724Z,11.48
2022-12-31T12:41:10.580Z,10.50
2022-12-31T12:44:19.713Z,10.43
2022-12-31T12:47:28.946Z,11.20
2022-12-31T12:50:42.425Z,11.25
2022-12-31T12:54:46.228Z,10.15
2022-12-31T13:04:23.797Z,11.10
2022-12-31T13:20:22.193Z,10.30
2022-12-31T13:25:03.588Z,10.30
2022-12-31T13:28:49.196Z,12.25
2022-12-31T13:32:40.210Z,10.18
2022-12-31T13:35:54.129Z,11.63
2022-12-31T13:39:02.358Z,10.70
2022-12-31T13:42:27.597Z,9.25
2022-12-31T13:45:38.889Z,10.80
2022-12-31T13:48:53.584Z,12.45
2022-12-31T13:52:27.410Z,10.85
2022-12-31T13:55:36.749Z,11.48
2022-12-31T13:58:57.955Z,11.40
2022-12-31T14:02:35.546Z,9.98
2022-12-31T14:05:52.728Z,10.27
2022-12-31T14:08:57.848Z,9.20
2022-12-31T14:12:31.133Z,8.95
2022-12-31T14:15:52.757Z,9.43
2022-12-31T14:19:07.398Z,10.40
2022-12-31T14:22:18.949Z,8.98
2022-12-31T14:26:23.852Z,9.50
2022-12-31T14:29:50.353Z,9.85
2022-12-31T14:33:43.671Z,9.38
2022-12-31T14:37:17.215Z,9.18
2022-12-31T14:41:23.962Z,9.32
2022-12-31T14:44:54.326Z,9.43
2022-12-31T14:48:09.595Z,11.68
2022-12-31T14:51:15.064Z,9.73
2022-12-31T14:55:24.487Z,11.98
2022-12-31T14:58:54.071Z,11.00
2022-12-31T15:02:33.769Z,12.68
2022-12-31T15:05:53.251Z,12.68
2022-12-31T15:09:17.911Z,11.18
2022-12-31T15:12:29.028Z,12.73
2022-12-31T15:15:43.052Z,13.00
2022-12-31T15:19:11.999Z,11.68
2022-12-31T15:22:37.652Z,11.43
2022-12-31T15:25:48.385Z,10.95
2022-12-31T15:29:51.294Z,12.52
2022-12-31T15:33:27.211Z,11.88
2022-12-31T15:36:34.611Z,11.15
2022-12-31T15:39:44.566Z,12.10
2022-12-31T15:42:58.341Z,11.57
2022-12-31T15:46:06.079Z,12.25
2022-12-31T15:49:23.854Z,16.02
2022-12-31T15:53:02.464Z,16.08
2022-12-31T15:56:49.011Z,15.13
2022-12-31T16:00:24.983Z,15.15
2022-12-31T16:03:36.734Z,16.90
2022-12-31T16:06:46.074Z,15.30
2022-12-31T16:10:50.372Z,15.00
2022-12-31T16:14:00.732Z,14.27
2022-12-31T16:17:38.633Z,11.88
2022-12-31T16:20:50.772Z,13.88
2022-12-31T16:24:35.219Z,12.77
2022-12-31T16:28:01.746Z,13.95
2022-12-31T16:31:29.199Z,12.82
2022-12-31T16:34:38.324Z,12.60
2022-12-31T16:37:42.751Z,14.07
2022-12-31T16:41:03.881Z,13.23
2022-12-31T16:44:24.873Z,12.57
2022-12-31T16:47:40.662Z,12.70
2022-12-31T16:50:49.687Z,13.00
2022-12-31T16:53:53.109Z,12.82
2022-12-31T16:56:59.003Z,13.75
2022-12-31T17:00:07.289Z,16.87
2022-12-31T17:06:21.263Z,12.37
2022-12-31T17:09:37.284Z,18.92
2022-12-31T17:13:25.546Z,16.65
2022-12-31T17:16:09.015Z,16.17
2022-12-31T17:19:42.042Z,16.17
2022-12-31T17:22:46.020Z,16.85
2022-12-31T17:25:49.427Z,15.40
2022-12-31T17:28:54.445Z,15.75
2022-12-31T17:32:07.670Z,14.57
2022-12-31T17:35:43.856Z,17.17
2022-12-31T17:38:47.841Z,16.90
2022-12-31T17:41:58.508Z,18.55
2022-12-31T17:45:16.323Z,15.15
2022-12-31T17:48:23.401Z,16.20
2022-12-31T17:51:29.568Z,17.87
2022-12-31T17:54:32.920Z,20.02
2022-12-31T17:57:36.436Z,18.77
2022-12-31T18:00:39.886Z,20.83
2022-12-31T18:03:44.457Z,18.55
2022-12-31T18:06:47.175Z,23.58
2022-12-31T18:09:53.793Z,25.10
2022-12-31T18:12:59.228Z,24.17
2022-12-31T18:16:02.441Z,22.60
2022-12-31T18:19:23.531Z,21.65
2022-12-31T18:22:38.063Z,20.10
2022-12-31T18:28:43.794Z,21.85
2022-12-31T18:31:49.489Z,23.12
2022-12-31T18:34:53.237Z,24.58
2022-12-31T18:38:00.296Z,22.42
2022-12-31T18:41:19.779Z,21.25
2022-12-31T18:44:27.531Z,22.40
2022-12-31T18:47:37.299Z,22.95
2022-12-31T18:50:44.402Z,28.90
2022-12-31T18:53:48.515Z,27.50
2022-12-31T18:56:57.072Z,24.70
2022-12-31T19:03:06.367Z,24.00
2022-12-31T19:06:10.333Z,28.62
2022-12-31T19:09:43.504Z,26.65
2022-12-31T19:12:37.696Z,28.38
2022-12-31T19:15:50.901Z,27.02
2022-12-31T19:18:54.846Z,23.62
2022-12-31T19:21:58.035Z,23.65
2022-12-31T19:25:02.565Z,27.50
2022-12-31T19:28:13.368Z,36.45
2022-12-31T19:31:18.993Z,29.48
2022-12-31T19:34:26.007Z,28.92
2022-12-31T19:37:30.560Z,29.42
2022-12-31T19:40:38.054Z,30.00
2022-12-31T19:43:43.793Z,26.45
2022-12-31T19:46:47.191Z,30.75
2022-12-31T19:49:50.974Z,28.92
2022-12-31T19:52:57.510Z,28.62
2022-12-31T19:56:03.023Z,28.30
2022-12-31T19:59:07.847Z,29.60
2022-12-31T20:02:31.200Z,27.60
2022-12-31T20:05:38.801Z,25.15
2022-12-31T20:08:44.714Z,28.10
2022-12-31T20:12:07.891Z,28.05
2022-12-31T20:15:11.601Z,24.05
2022-12-31T20:18:20.971Z,24.55
2022-12-31T20:21:28.942Z,26.37
2022-12-31T20:24:34.285Z,26.77
2022-12-31T20:27:39.743Z,27.00
2022-12-31T20:30:45.989Z,27.55
2022-12-31T20:33:49.999Z,24.95
2022-12-31T20:36:56.227Z,25.37
2022-12-31T20:40:00.851Z,22.67
2022-12-31T20:43:06.888Z,25.35
2022-12-31T20:50:10.178Z,27.13
2022-12-31T20:53:11.593Z,30.12
2022-12-31T20:56:16.535Z,29.25
2022-12-31T20:59:26.319Z,28.85
2022-12-31T21:02:42.162Z,28.58
2022-12-31T21:05:53.473Z,29.77
2022-12-31T21:08:59.495Z,28.87
2022-12-31T21:12:28.799Z,30.98
2022-12-31T21:15:32.267Z,27.90
2022-12-31T21:18:35.341Z,28.50
2022-12-31T21:21:50.990Z,28.70
2022-12-31T21:24:54.127Z,28.42
2022-12-31T21:27:58.004Z,27.20
2022-12-31T21:31:06.395Z,27.10
2022-12-31T21:34:15.857Z,27.33
2022-12-31T21:37:19.723Z,26.73
2022-12-31T21:40:27.269Z,25.73
2022-12-31T21:43:35.950Z,25.65
2022-12-31T21:46:54.614Z,24.42
2022-12-31T21:50:16.063Z,26.30
2022-12-31T21:53:36.621Z,26.85
2022-12-31T21:56:44.776Z,21.67
2022-12-31T22:00:40.435Z,22.92
2022-12-31T22:03:43.414Z,20.45
2022-12-31T22:06:56.879Z,21.52
2022-12-31T22:10:03.391Z,20.25
2022-12-31T22:13:10.637Z,22.52
2022-12-31T22:16:20.431Z,21.83
2022-12-31T22:19:23.379Z,23.83
2022-12-31T22:22:26.823Z,24.77
2022-12-31T22:25:39.626Z,23.35
2022-12-31T22:28:44.361Z,22.80
2022-12-31T22:31:49.969Z,21.67
2022-12-31T22:34:53.088Z,20.88
2022-12-31T22:38:03.279Z,20.33
2022-12-31T22:41:21.445Z,19.70
2022-12-31T22:44:30.799Z,22.30
2022-12-31T22:47:33.824Z,23.70
2022-12-31T22:50:38.269Z,26.40
2022-12-31T22:53:43.684Z,25.10
2022-12-31T22:56:48.927Z,28.23
2022-12-31T23:00:02.554Z,22.92
2022-12-31T23:03:12.409Z,24.92
2022-12-31T23:06:43.953Z,25.40
2022-12-31T23:10:06.249Z,26.05
2022-12-31T23:13:28.726Z,23.75
2022-12-31T23:16:50.318Z,23.87
2022-12-31T23:20:15.733Z,23.52
2022-12-31T23:23:21.528Z,24.33
2022-12-31T23:26:24.598Z,25.98
2022-12-31T23:29:30.170Z,31.27
2022-12-31T23:32:33.823Z,35.08
2022-12-31T23:35:38.069Z,36.25
2022-12-31T23:38:53.936Z,33.42
2022-12-31T23:42:00.933Z,31.37
2022-12-31T23:45:04.530Z,36.65
2022-12-31T23:48:07.885Z,36.65
2022-12-31T23:51:11.506Z,34.05
2022-12-31T23:54:18.401Z,41.35
2022-12-31T23:57:22.980Z,39.83
